sensor_id;sensor_type;location;lat;lon;timestamp;P1;durP1;ratioP1;P2;durP2;ratioP2
5349;SDS011;2697;42.144;24.794;2023-03-14T00:01:45;8.10;;;3.10;;
5349;SDS011;2697;42.144;24.794;2023-03-14T00:04:10;12.33;;;3.60;;
5349;SDS011;2697;42.144;24.794;2023-03-14T00:06:35;5.63;;;3.07;;
5349;SDS011;2697;42.144;24.794;2023-03-14T00:09:01;6.57;;;3.13;;
5349;SDS011;2697;42.144;24.794;2023-03-14T00:11:26;8.77;;;3.63;;
5349;SDS011;2697;42.144;24.794;2023-03-14T00:13:52;8.00;;;3.70;;
5349;SDS011;2697;42.144;24.794;2023-03-14T00:16:18;10.33;;;4.20;;
5349;SDS011;2697;42.144;24.794;2023-03-14T00:18:44;9.30;;;3.60;;
5349;SDS011;2697;42.144;24.794;2023-03-14T00:21:09;12.47;;;3.70;;
5349;SDS011;2697;42.144;24.794;2023-03-14T00:23:36;7.67;;;4.13;;
5349;SDS011;2697;42.144;24.794;2023-03-14T00:26:07;9.10;;;2.90;;
5349;SDS011;2697;42.144;24.794;2023-03-14T00:28:37;7.33;;;3.70;;
5349;SDS011;2697;42.144;24.794;2023-03-14T00:31:03;8.97;;;3.40;;
5349;SDS011;2697;42.144;24.794;2023-03-14T00:33:33;16.93;;;3.60;;
5349;SDS011;2697;42.144;24.794;2023-03-14T00:35:59;12.73;;;3.50;;
5349;SDS011;2697;42.144;24.794;2023-03-14T00:38:27;5.40;;;2.70;;
5349;SDS011;2697;42.144;24.794;2023-03-14T00:40:52;6.30;;;3.03;;
5349;SDS011;2697;42.144;24.794;2023-03-14T00:43:18;8.53;;;3.30;;
5349;SDS011;2697;42.144;24.794;2023-03-14T00:45:46;4.80;;;2.97;;
5349;SDS011;2697;42.144;24.794;2023-03-14T00:48:12;4.83;;;3.00;;
5349;SDS011;2697;42.144;24.794;2023-03-14T00:50:38;9.83;;;2.97;;
5349;SDS011;2697;42.144;24.794;2023-03-14T00:53:04;5.67;;;3.23;;
5349;SDS011;2697;42.144;24.794;2023-03-14T00:55:29;6.27;;;3.33;;
5349;SDS011;2697;42.144;24.794;2023-03-14T00:57:55;15.47;;;3.47;;
5349;SDS011;2697;42.144;24.794;2023-03-14T01:00:20;6.23;;;2.60;;
5349;SDS011;2697;42.144;24.794;2023-03-14T01:02:46;8.50;;;3.00;;
5349;SDS011;2697;42.144;24.794;2023-03-14T01:05:11;7.80;;;4.20;;
5349;SDS011;2697;42.144;24.794;2023-03-14T01:07:37;13.23;;;3.47;;
5349;SDS011;2697;42.144;24.794;2023-03-14T01:10:03;5.37;;;2.90;;
5349;SDS011;2697;42.144;24.794;2023-03-14T01:12:30;9.00;;;3.50;;
5349;SDS011;2697;42.144;24.794;2023-03-14T01:14:55;9.70;;;3.60;;
5349;SDS011;2697;42.144;24.794;2023-03-14T01:17:21;21.33;;;3.40;;
5349;SDS011;2697;42.144;24.794;2023-03-14T01:19:47;7.30;;;3.50;;
5349;SDS011;2697;42.144;24.794;2023-03-14T01:22:12;5.07;;;3.20;;
5349;SDS011;2697;42.144;24.794;2023-03-14T01:24:38;12.07;;;3.60;;
5349;SDS011;2697;42.144;24.794;2023-03-14T01:27:03;13.37;;;3.00;;
5349;SDS011;2697;42.144;24.794;2023-03-14T01:29:28;12.83;;;4.07;;
5349;SDS011;2697;42.144;24.794;2023-03-14T01:31:54;4.10;;;2.70;;
5349;SDS011;2697;42.144;24.794;2023-03-14T01:34:19;7.77;;;3.67;;
5349;SDS011;2697;42.144;24.794;2023-03-14T01:36:45;11.20;;;3.77;;
5349;SDS011;2697;42.144;24.794;2023-03-14T01:39:10;8.60;;;4.10;;
5349;SDS011;2697;42.144;24.794;2023-03-14T01:41:36;9.47;;;3.93;;
5349;SDS011;2697;42.144;24.794;2023-03-14T01:44:01;12.70;;;4.40;;
5349;SDS011;2697;42.144;24.794;2023-03-14T01:54:40;8.83;;;3.77;;
5349;SDS011;2697;42.144;24.794;2023-03-14T01:59:38;8.30;;;3.57;;
5349;SDS011;2697;42.144;24.794;2023-03-14T02:02:08;5.73;;;3.40;;
5349;SDS011;2697;42.144;24.794;2023-03-14T02:04:36;7.10;;;3.50;;
5349;SDS011;2697;42.144;24.794;2023-03-14T02:09:32;14.40;;;4.40;;
5349;SDS011;2697;42.144;24.794;2023-03-14T02:11:58;6.30;;;3.80;;
5349;SDS011;2697;42.144;24.794;2023-03-14T02:14:32;12.80;;;4.20;;
5349;SDS011;2697;42.144;24.794;2023-03-14T02:16:59;7.07;;;3.60;;
5349;SDS011;2697;42.144;24.794;2023-03-14T02:19:50;7.63;;;3.70;;
5349;SDS011;2697;42.144;24.794;2023-03-14T02:22:32;6.27;;;3.77;;
5349;SDS011;2697;42.144;24.794;2023-03-14T02:25:02;7.67;;;3.60;;
5349;SDS011;2697;42.144;24.794;2023-03-14T02:27:30;7.83;;;3.30;;
5349;SDS011;2697;42.144;24.794;2023-03-14T02:29:59;12.17;;;3.43;;
5349;SDS011;2697;42.144;24.794;2023-03-14T02:32:40;11.60;;;4.07;;
5349;SDS011;2697;42.144;24.794;2023-03-14T02:35:09;12.70;;;4.57;;
5349;SDS011;2697;42.144;24.794;2023-03-14T02:37:43;10.43;;;4.50;;
5349;SDS011;2697;42.144;24.794;2023-03-14T02:40:14;8.93;;;4.70;;
5349;SDS011;2697;42.144;24.794;2023-03-14T02:42:40;8.47;;;4.87;;
5349;SDS011;2697;42.144;24.794;2023-03-14T02:47:34;7.07;;;3.67;;
5349;SDS011;2697;42.144;24.794;2023-03-14T02:50:02;7.20;;;3.53;;
5349;SDS011;2697;42.144;24.794;2023-03-14T02:52:30;16.00;;;4.30;;
5349;SDS011;2697;42.144;24.794;2023-03-14T02:54:56;13.67;;;4.40;;
5349;SDS011;2697;42.144;24.794;2023-03-14T02:57:21;9.73;;;5.50;;
5349;SDS011;2697;42.144;24.794;2023-03-14T02:59:46;9.47;;;4.97;;
5349;SDS011;2697;42.144;24.794;2023-03-14T03:02:12;22.13;;;6.47;;
5349;SDS011;2697;42.144;24.794;2023-03-14T03:04:37;30.47;;;5.10;;
5349;SDS011;2697;42.144;24.794;2023-03-14T03:07:02;10.10;;;5.10;;
5349;SDS011;2697;42.144;24.794;2023-03-14T03:09:28;20.60;;;5.50;;
5349;SDS011;2697;42.144;24.794;2023-03-14T03:11:53;13.03;;;4.80;;
5349;SDS011;2697;42.144;24.794;2023-03-14T03:14:18;13.07;;;5.00;;
5349;SDS011;2697;42.144;24.794;2023-03-14T03:16:44;15.23;;;6.20;;
5349;SDS011;2697;42.144;24.794;2023-03-14T03:19:09;21.03;;;7.47;;
5349;SDS011;2697;42.144;24.794;2023-03-14T03:21:35;15.53;;;6.43;;
5349;SDS011;2697;42.144;24.794;2023-03-14T03:24:00;29.97;;;7.67;;
5349;SDS011;2697;42.144;24.794;2023-03-14T03:26:25;19.40;;;6.23;;
5349;SDS011;2697;42.144;24.794;2023-03-14T03:28:51;17.27;;;7.00;;
5349;SDS011;2697;42.144;24.794;2023-03-14T03:31:17;13.10;;;6.40;;
5349;SDS011;2697;42.144;24.794;2023-03-14T03:33:43;19.13;;;6.77;;
5349;SDS011;2697;42.144;24.794;2023-03-14T03:36:08;22.50;;;7.20;;
5349;SDS011;2697;42.144;24.794;2023-03-14T03:38:34;15.13;;;5.33;;
5349;SDS011;2697;42.144;24.794;2023-03-14T03:41:04;18.13;;;5.37;;
5349;SDS011;2697;42.144;24.794;2023-03-14T03:43:31;18.33;;;5.63;;
5349;SDS011;2697;42.144;24.794;2023-03-14T03:45:56;21.27;;;6.50;;
5349;SDS011;2697;42.144;24.794;2023-03-14T03:48:22;17.13;;;6.80;;
5349;SDS011;2697;42.144;24.794;2023-03-14T03:50:47;32.43;;;6.90;;
5349;SDS011;2697;42.144;24.794;2023-03-14T03:53:13;11.87;;;5.60;;
5349;SDS011;2697;42.144;24.794;2023-03-14T03:55:40;10.67;;;5.47;;
5349;SDS011;2697;42.144;24.794;2023-03-14T03:58:07;17.43;;;5.60;;
5349;SDS011;2697;42.144;24.794;2023-03-14T04:00:32;16.63;;;5.67;;
5349;SDS011;2697;42.144;24.794;2023-03-14T04:02:58;35.37;;;7.13;;
5349;SDS011;2697;42.144;24.794;2023-03-14T04:05:24;13.70;;;4.67;;
5349;SDS011;2697;42.144;24.794;2023-03-14T04:07:50;16.00;;;6.40;;
5349;SDS011;2697;42.144;24.794;2023-03-14T04:10:15;19.07;;;5.80;;
5349;SDS011;2697;42.144;24.794;2023-03-14T04:12:40;12.60;;;5.80;;
5349;SDS011;2697;42.144;24.794;2023-03-14T04:15:06;13.93;;;6.67;;
5349;SDS011;2697;42.144;24.794;2023-03-14T04:17:32;18.97;;;6.93;;
5349;SDS011;2697;42.144;24.794;2023-03-14T04:19:58;22.60;;;6.70;;
5349;SDS011;2697;42.144;24.794;2023-03-14T04:22:23;14.23;;;5.80;;
5349;SDS011;2697;42.144;24.794;2023-03-14T04:24:48;19.80;;;6.23;;
5349;SDS011;2697;42.144;24.794;2023-03-14T04:27:14;13.73;;;5.80;;
5349;SDS011;2697;42.144;24.794;2023-03-14T04:29:39;18.60;;;8.23;;
5349;SDS011;2697;42.144;24.794;2023-03-14T04:32:05;22.47;;;7.30;;
5349;SDS011;2697;42.144;24.794;2023-03-14T04:34:31;13.17;;;7.03;;
5349;SDS011;2697;42.144;24.794;2023-03-14T04:36:56;13.03;;;5.73;;
5349;SDS011;2697;42.144;24.794;2023-03-14T04:39:21;18.40;;;6.07;;
5349;SDS011;2697;42.144;24.794;2023-03-14T04:41:47;21.60;;;7.87;;
5349;SDS011;2697;42.144;24.794;2023-03-14T04:44:12;26.17;;;9.70;;
5349;SDS011;2697;42.144;24.794;2023-03-14T04:46:37;13.47;;;6.30;;
5349;SDS011;2697;42.144;24.794;2023-03-14T04:49:03;14.30;;;6.63;;
5349;SDS011;2697;42.144;24.794;2023-03-14T04:51:28;31.57;;;7.80;;
5349;SDS011;2697;42.144;24.794;2023-03-14T04:53:54;11.07;;;5.70;;
5349;SDS011;2697;42.144;24.794;2023-03-14T04:56:20;14.17;;;6.37;;
5349;SDS011;2697;42.144;24.794;2023-03-14T04:58:45;14.87;;;6.80;;
5349;SDS011;2697;42.144;24.794;2023-03-14T05:01:11;12.80;;;6.37;;
5349;SDS011;2697;42.144;24.794;2023-03-14T05:03:36;11.53;;;6.13;;
5349;SDS011;2697;42.144;24.794;2023-03-14T05:06:03;14.43;;;6.80;;
5349;SDS011;2697;42.144;24.794;2023-03-14T05:08:29;14.90;;;7.23;;
5349;SDS011;2697;42.144;24.794;2023-03-14T05:10:55;12.73;;;7.10;;
5349;SDS011;2697;42.144;24.794;2023-03-14T05:13:22;19.40;;;7.60;;
5349;SDS011;2697;42.144;24.794;2023-03-14T05:15:47;17.33;;;7.03;;
5349;SDS011;2697;42.144;24.794;2023-03-14T05:18:13;24.07;;;8.50;;
5349;SDS011;2697;42.144;24.794;2023-03-14T05:20:39;22.03;;;9.47;;
5349;SDS011;2697;42.144;24.794;2023-03-14T05:23:04;30.10;;;10.00;;
5349;SDS011;2697;42.144;24.794;2023-03-14T05:25:29;35.77;;;8.87;;
5349;SDS011;2697;42.144;24.794;2023-03-14T05:27:55;15.63;;;7.87;;
5349;SDS011;2697;42.144;24.794;2023-03-14T05:30:21;24.83;;;7.70;;
5349;SDS011;2697;42.144;24.794;2023-03-14T05:32:47;42.73;;;8.37;;
5349;SDS011;2697;42.144;24.794;2023-03-14T05:35:12;58.13;;;8.40;;
5349;SDS011;2697;42.144;24.794;2023-03-14T05:37:38;18.67;;;8.40;;
5349;SDS011;2697;42.144;24.794;2023-03-14T05:40:03;20.70;;;8.10;;
5349;SDS011;2697;42.144;24.794;2023-03-14T05:42:31;30.37;;;9.87;;
5349;SDS011;2697;42.144;24.794;2023-03-14T05:44:57;34.83;;;11.43;;
5349;SDS011;2697;42.144;24.794;2023-03-14T05:47:22;36.93;;;11.17;;
5349;SDS011;2697;42.144;24.794;2023-03-14T05:49:48;30.37;;;14.30;;
5349;SDS011;2697;42.144;24.794;2023-03-14T05:52:13;35.27;;;15.80;;
5349;SDS011;2697;42.144;24.794;2023-03-14T05:54:39;34.57;;;13.70;;
5349;SDS011;2697;42.144;24.794;2023-03-14T05:57:05;45.77;;;16.80;;
5349;SDS011;2697;42.144;24.794;2023-03-14T05:59:31;46.53;;;17.27;;
5349;SDS011;2697;42.144;24.794;2023-03-14T06:01:57;37.17;;;18.90;;
5349;SDS011;2697;42.144;24.794;2023-03-14T06:04:22;49.67;;;20.50;;
5349;SDS011;2697;42.144;24.794;2023-03-14T06:06:48;57.63;;;20.57;;
5349;SDS011;2697;42.144;24.794;2023-03-14T06:09:14;43.80;;;20.10;;
5349;SDS011;2697;42.144;24.794;2023-03-14T06:11:39;54.60;;;20.23;;
5349;SDS011;2697;42.144;24.794;2023-03-14T06:14:04;48.47;;;19.23;;
5349;SDS011;2697;42.144;24.794;2023-03-14T06:16:30;38.43;;;16.70;;
5349;SDS011;2697;42.144;24.794;2023-03-14T06:18:56;42.50;;;17.13;;
5349;SDS011;2697;42.144;24.794;2023-03-14T06:21:22;40.73;;;16.80;;
5349;SDS011;2697;42.144;24.794;2023-03-14T06:23:48;33.87;;;17.20;;
5349;SDS011;2697;42.144;24.794;2023-03-14T06:26:13;36.67;;;16.07;;
5349;SDS011;2697;42.144;24.794;2023-03-14T06:28:38;30.70;;;15.63;;
5349;SDS011;2697;42.144;24.794;2023-03-14T06:31:04;23.50;;;12.17;;
5349;SDS011;2697;42.144;24.794;2023-03-14T06:33:30;25.73;;;11.77;;
5349;SDS011;2697;42.144;24.794;2023-03-14T06:35:55;32.53;;;14.13;;
5349;SDS011;2697;42.144;24.794;2023-03-14T06:38:20;28.10;;;11.70;;
5349;SDS011;2697;42.144;24.794;2023-03-14T06:40:46;23.90;;;11.40;;
5349;SDS011;2697;42.144;24.794;2023-03-14T06:43:11;20.70;;;10.10;;
5349;SDS011;2697;42.144;24.794;2023-03-14T06:45:36;17.63;;;9.83;;
5349;SDS011;2697;42.144;24.794;2023-03-14T06:48:02;29.90;;;10.00;;
5349;SDS011;2697;42.144;24.794;2023-03-14T06:50:27;27.03;;;11.03;;
5349;SDS011;2697;42.144;24.794;2023-03-14T06:52:53;34.33;;;9.97;;
5349;SDS011;2697;42.144;24.794;2023-03-14T06:55:18;37.73;;;10.20;;
5349;SDS011;2697;42.144;24.794;2023-03-14T06:57:44;17.13;;;6.37;;
5349;SDS011;2697;42.144;24.794;2023-03-14T07:00:09;22.73;;;7.47;;
5349;SDS011;2697;42.144;24.794;2023-03-14T07:02:36;10.77;;;5.27;;
5349;SDS011;2697;42.144;24.794;2023-03-14T07:05:01;18.70;;;5.40;;
5349;SDS011;2697;42.144;24.794;2023-03-14T07:07:28;21.87;;;7.07;;
5349;SDS011;2697;42.144;24.794;2023-03-14T07:09:54;16.80;;;6.70;;
5349;SDS011;2697;42.144;24.794;2023-03-14T07:12:19;10.90;;;6.07;;
5349;SDS011;2697;42.144;24.794;2023-03-14T07:14:45;13.30;;;6.93;;
5349;SDS011;2697;42.144;24.794;2023-03-14T07:17:10;10.53;;;4.50;;
5349;SDS011;2697;42.144;24.794;2023-03-14T07:19:36;11.50;;;5.63;;
5349;SDS011;2697;42.144;24.794;2023-03-14T07:22:02;16.30;;;5.77;;
5349;SDS011;2697;42.144;24.794;2023-03-14T07:24:28;12.03;;;4.80;;
5349;SDS011;2697;42.144;24.794;2023-03-14T07:26:54;9.73;;;4.77;;
5349;SDS011;2697;42.144;24.794;2023-03-14T07:29:19;6.80;;;3.70;;
5349;SDS011;2697;42.144;24.794;2023-03-14T07:31:45;14.20;;;4.57;;
5349;SDS011;2697;42.144;24.794;2023-03-14T07:34:10;14.13;;;4.83;;
5349;SDS011;2697;42.144;24.794;2023-03-14T07:36:35;12.87;;;5.03;;
5349;SDS011;2697;42.144;24.794;2023-03-14T07:39:01;5.40;;;3.80;;
5349;SDS011;2697;42.144;24.794;2023-03-14T07:41:26;18.93;;;5.00;;
5349;SDS011;2697;42.144;24.794;2023-03-14T07:43:52;11.20;;;6.10;;
5349;SDS011;2697;42.144;24.794;2023-03-14T07:46:17;11.60;;;4.13;;
5349;SDS011;2697;42.144;24.794;2023-03-14T07:48:43;10.57;;;3.77;;
5349;SDS011;2697;42.144;24.794;2023-03-14T07:51:09;8.27;;;4.53;;
5349;SDS011;2697;42.144;24.794;2023-03-14T07:53:34;18.60;;;4.43;;
5349;SDS011;2697;42.144;24.794;2023-03-14T07:55:59;8.33;;;5.07;;
5349;SDS011;2697;42.144;24.794;2023-03-14T07:58:25;5.23;;;3.20;;
5349;SDS011;2697;42.144;24.794;2023-03-14T08:00:51;19.93;;;5.93;;
5349;SDS011;2697;42.144;24.794;2023-03-14T08:03:17;10.20;;;5.40;;
5349;SDS011;2697;42.144;24.794;2023-03-14T08:05:43;9.83;;;4.70;;
5349;SDS011;2697;42.144;24.794;2023-03-14T08:08:09;29.63;;;4.57;;
5349;SDS011;2697;42.144;24.794;2023-03-14T08:10:36;9.33;;;4.67;;
5349;SDS011;2697;42.144;24.794;2023-03-14T08:13:01;8.40;;;4.40;;
5349;SDS011;2697;42.144;24.794;2023-03-14T08:15:27;8.77;;;3.47;;
5349;SDS011;2697;42.144;24.794;2023-03-14T08:17:54;8.30;;;4.20;;
5349;SDS011;2697;42.144;24.794;2023-03-14T08:20:21;11.20;;;4.60;;
5349;SDS011;2697;42.144;24.794;2023-03-14T08:22:48;11.63;;;4.83;;
5349;SDS011;2697;42.144;24.794;2023-03-14T08:25:14;14.27;;;4.80;;
5349;SDS011;2697;42.144;24.794;2023-03-14T08:27:40;10.97;;;5.87;;
5349;SDS011;2697;42.144;24.794;2023-03-14T08:30:07;11.83;;;5.77;;
5349;SDS011;2697;42.144;24.794;2023-03-14T08:32:35;7.97;;;4.13;;
5349;SDS011;2697;42.144;24.794;2023-03-14T08:35:00;12.73;;;3.80;;
5349;SDS011;2697;42.144;24.794;2023-03-14T08:37:26;14.23;;;5.07;;
5349;SDS011;2697;42.144;24.794;2023-03-14T08:39:52;16.87;;;5.80;;
5349;SDS011;2697;42.144;24.794;2023-03-14T08:42:17;19.33;;;5.13;;
5349;SDS011;2697;42.144;24.794;2023-03-14T08:44:43;11.03;;;4.60;;
5349;SDS011;2697;42.144;24.794;2023-03-14T08:47:08;7.60;;;3.97;;
5349;SDS011;2697;42.144;24.794;2023-03-14T08:49:34;12.33;;;3.70;;
5349;SDS011;2697;42.144;24.794;2023-03-14T08:52:01;12.63;;;4.93;;
5349;SDS011;2697;42.144;24.794;2023-03-14T08:54:29;11.43;;;4.70;;
5349;SDS011;2697;42.144;24.794;2023-03-14T08:56:55;14.03;;;5.40;;
5349;SDS011;2697;42.144;24.794;2023-03-14T08:59:21;5.70;;;3.90;;
5349;SDS011;2697;42.144;24.794;2023-03-14T09:01:47;15.73;;;4.67;;
5349;SDS011;2697;42.144;24.794;2023-03-14T09:04:12;19.80;;;5.00;;
5349;SDS011;2697;42.144;24.794;2023-03-14T09:06:38;8.63;;;3.67;;
5349;SDS011;2697;42.144;24.794;2023-03-14T09:09:04;8.83;;;4.67;;
5349;SDS011;2697;42.144;24.794;2023-03-14T09:11:30;8.67;;;3.77;;
5349;SDS011;2697;42.144;24.794;2023-03-14T09:13:55;10.43;;;3.77;;
5349;SDS011;2697;42.144;24.794;2023-03-14T09:16:20;11.83;;;3.90;;
5349;SDS011;2697;42.144;24.794;2023-03-14T09:18:46;11.00;;;3.67;;
5349;SDS011;2697;42.144;24.794;2023-03-14T09:21:11;10.47;;;4.47;;
5349;SDS011;2697;42.144;24.794;2023-03-14T09:23:37;5.37;;;3.53;;
5349;SDS011;2697;42.144;24.794;2023-03-14T09:26:04;9.23;;;4.67;;
5349;SDS011;2697;42.144;24.794;2023-03-14T09:28:29;9.57;;;4.27;;
5349;SDS011;2697;42.144;24.794;2023-03-14T09:30:55;9.90;;;3.30;;
5349;SDS011;2697;42.144;24.794;2023-03-14T09:33:21;6.20;;;3.90;;
5349;SDS011;2697;42.144;24.794;2023-03-14T09:35:46;8.27;;;3.87;;
5349;SDS011;2697;42.144;24.794;2023-03-14T09:38:12;7.53;;;3.43;;
5349;SDS011;2697;42.144;24.794;2023-03-14T09:40:37;6.47;;;3.33;;
5349;SDS011;2697;42.144;24.794;2023-03-14T09:43:03;7.33;;;3.90;;
5349;SDS011;2697;42.144;24.794;2023-03-14T09:45:31;7.80;;;4.30;;
5349;SDS011;2697;42.144;24.794;2023-03-14T09:47:59;7.80;;;3.80;;
5349;SDS011;2697;42.144;24.794;2023-03-14T09:50:30;9.73;;;4.40;;
5349;SDS011;2697;42.144;24.794;2023-03-14T09:53:18;13.17;;;4.30;;
5349;SDS011;2697;42.144;24.794;2023-03-14T09:55:47;7.60;;;4.67;;
5349;SDS011;2697;42.144;24.794;2023-03-14T09:58:19;12.83;;;4.30;;
5349;SDS011;2697;42.144;24.794;2023-03-14T10:00:45;5.97;;;3.63;;
5349;SDS011;2697;42.144;24.794;2023-03-14T10:05:37;13.67;;;4.70;;
5349;SDS011;2697;42.144;24.794;2023-03-14T10:08:02;9.30;;;5.47;;
5349;SDS011;2697;42.144;24.794;2023-03-14T10:10:28;10.13;;;6.07;;
5349;SDS011;2697;42.144;24.794;2023-03-14T10:12:58;9.57;;;4.70;;
5349;SDS011;2697;42.144;24.794;2023-03-14T10:15:38;9.30;;;4.60;;
5349;SDS011;2697;42.144;24.794;2023-03-14T10:18:06;12.23;;;5.20;;
5349;SDS011;2697;42.144;24.794;2023-03-14T10:20:42;7.63;;;4.80;;
5349;SDS011;2697;42.144;24.794;2023-03-14T10:25:41;9.50;;;5.70;;
5349;SDS011;2697;42.144;24.794;2023-03-14T10:28:31;15.10;;;6.00;;
5349;SDS011;2697;42.144;24.794;2023-03-14T10:31:02;4.20;;;3.07;;
5349;SDS011;2697;42.144;24.794;2023-03-14T10:33:31;8.20;;;3.70;;
5349;SDS011;2697;42.144;24.794;2023-03-14T10:38:51;11.23;;;3.50;;
5349;SDS011;2697;42.144;24.794;2023-03-14T10:41:30;8.97;;;3.50;;
5349;SDS011;2697;42.144;24.794;2023-03-14T10:43:58;5.13;;;3.60;;
5349;SDS011;2697;42.144;24.794;2023-03-14T10:46:26;6.43;;;4.17;;
5349;SDS011;2697;42.144;24.794;2023-03-14T10:48:54;9.13;;;4.37;;
5349;SDS011;2697;42.144;24.794;2023-03-14T10:51:29;10.43;;;4.10;;
5349;SDS011;2697;42.144;24.794;2023-03-14T10:56:56;13.63;;;3.90;;
5349;SDS011;2697;42.144;24.794;2023-03-14T10:59:23;8.80;;;3.60;;
5349;SDS011;2697;42.144;24.794;2023-03-14T11:01:55;6.00;;;3.50;;
5349;SDS011;2697;42.144;24.794;2023-03-14T11:12:48;20.80;;;3.73;;
5349;SDS011;2697;42.144;24.794;2023-03-14T11:24:17;5.00;;;2.77;;
5349;SDS011;2697;42.144;24.794;2023-03-14T11:26:58;6.40;;;2.30;;
5349;SDS011;2697;42.144;24.794;2023-03-14T11:29:37;11.70;;;3.07;;
5349;SDS011;2697;42.144;24.794;2023-03-14T11:32:31;5.90;;;2.90;;
5349;SDS011;2697;42.144;24.794;2023-03-14T11:35:14;5.53;;;3.33;;
5349;SDS011;2697;42.144;24.794;2023-03-14T11:37:52;8.83;;;1.80;;
5349;SDS011;2697;42.144;24.794;2023-03-14T11:40:22;11.53;;;2.83;;
5349;SDS011;2697;42.144;24.794;2023-03-14T11:42:56;8.23;;;3.00;;
5349;SDS011;2697;42.144;24.794;2023-03-14T11:45:43;3.90;;;2.83;;
5349;SDS011;2697;42.144;24.794;2023-03-14T11:50:43;4.43;;;3.00;;
5349;SDS011;2697;42.144;24.794;2023-03-14T11:53:16;5.67;;;3.20;;
5349;SDS011;2697;42.144;24.794;2023-03-14T11:55:44;3.73;;;2.17;;
5349;SDS011;2697;42.144;24.794;2023-03-14T12:00:51;5.40;;;3.50;;
5349;SDS011;2697;42.144;24.794;2023-03-14T12:03:32;9.07;;;2.70;;
5349;SDS011;2697;42.144;24.794;2023-03-14T12:06:22;5.27;;;3.23;;
5349;SDS011;2697;42.144;24.794;2023-03-14T12:08:49;13.60;;;4.40;;
5349;SDS011;2697;42.144;24.794;2023-03-14T12:11:31;4.90;;;2.90;;
5349;SDS011;2697;42.144;24.794;2023-03-14T12:14:03;7.73;;;2.97;;
5349;SDS011;2697;42.144;24.794;2023-03-14T12:16:43;7.43;;;3.50;;
5349;SDS011;2697;42.144;24.794;2023-03-14T12:21:54;7.27;;;3.53;;
5349;SDS011;2697;42.144;24.794;2023-03-14T12:24:30;6.73;;;3.60;;
5349;SDS011;2697;42.144;24.794;2023-03-14T12:27:00;9.10;;;3.17;;
5349;SDS011;2697;42.144;24.794;2023-03-14T12:29:27;5.20;;;3.00;;
5349;SDS011;2697;42.144;24.794;2023-03-14T12:34:48;7.53;;;2.40;;
5349;SDS011;2697;42.144;24.794;2023-03-14T12:45:29;4.40;;;2.50;;
5349;SDS011;2697;42.144;24.794;2023-03-14T12:50:34;7.60;;;4.40;;
5349;SDS011;2697;42.144;24.794;2023-03-14T12:56:17;6.40;;;3.10;;
5349;SDS011;2697;42.144;24.794;2023-03-14T13:01:59;12.83;;;3.53;;
5349;SDS011;2697;42.144;24.794;2023-03-14T13:04:45;6.57;;;4.03;;
5349;SDS011;2697;42.144;24.794;2023-03-14T13:10:19;10.13;;;3.33;;
5349;SDS011;2697;42.144;24.794;2023-03-14T13:12:48;5.20;;;3.63;;
5349;SDS011;2697;42.144;24.794;2023-03-14T13:17:59;11.63;;;4.37;;
5349;SDS011;2697;42.144;24.794;2023-03-14T13:21:02;6.03;;;3.43;;
5349;SDS011;2697;42.144;24.794;2023-03-14T13:23:25;6.20;;;3.20;;
5349;SDS011;2697;42.144;24.794;2023-03-14T13:25:52;5.00;;;3.60;;
5349;SDS011;2697;42.144;24.794;2023-03-14T13:28:18;8.87;;;3.93;;
5349;SDS011;2697;42.144;24.794;2023-03-14T13:30:45;8.37;;;4.93;;
5349;SDS011;2697;42.144;24.794;2023-03-14T13:33:13;6.17;;;3.70;;
5349;SDS011;2697;42.144;24.794;2023-03-14T13:35:50;12.50;;;3.87;;
5349;SDS011;2697;42.144;24.794;2023-03-14T13:38:22;9.00;;;3.90;;
5349;SDS011;2697;42.144;24.794;2023-03-14T13:40:49;10.10;;;3.20;;
5349;SDS011;2697;42.144;24.794;2023-03-14T13:43:30;12.77;;;3.50;;
5349;SDS011;2697;42.144;24.794;2023-03-14T13:46:02;13.10;;;3.70;;
5349;SDS011;2697;42.144;24.794;2023-03-14T13:48:43;14.33;;;4.23;;
5349;SDS011;2697;42.144;24.794;2023-03-14T13:51:10;7.37;;;3.70;;
5349;SDS011;2697;42.144;24.794;2023-03-14T13:56:11;5.10;;;2.77;;
5349;SDS011;2697;42.144;24.794;2023-03-14T13:58:37;4.20;;;2.90;;
5349;SDS011;2697;42.144;24.794;2023-03-14T14:03:44;6.30;;;3.60;;
5349;SDS011;2697;42.144;24.794;2023-03-14T14:08:51;4.87;;;3.40;;
5349;SDS011;2697;42.144;24.794;2023-03-14T14:14:04;6.27;;;2.33;;
5349;SDS011;2697;42.144;24.794;2023-03-14T14:16:33;6.43;;;3.03;;
5349;SDS011;2697;42.144;24.794;2023-03-14T14:18:59;6.67;;;2.70;;
5349;SDS011;2697;42.144;24.794;2023-03-14T14:21:25;6.40;;;3.30;;
5349;SDS011;2697;42.144;24.794;2023-03-14T14:23:51;9.77;;;4.00;;
5349;SDS011;2697;42.144;24.794;2023-03-14T14:26:17;4.40;;;2.80;;
5349;SDS011;2697;42.144;24.794;2023-03-14T14:28:44;10.90;;;3.77;;
5349;SDS011;2697;42.144;24.794;2023-03-14T14:33:43;4.40;;;2.90;;
5349;SDS011;2697;42.144;24.794;2023-03-14T14:36:17;10.23;;;3.40;;
5349;SDS011;2697;42.144;24.794;2023-03-14T14:38:49;6.50;;;3.30;;
5349;SDS011;2697;42.144;24.794;2023-03-14T14:41:15;7.27;;;3.90;;
5349;SDS011;2697;42.144;24.794;2023-03-14T14:43:41;4.90;;;3.50;;
5349;SDS011;2697;42.144;24.794;2023-03-14T14:46:06;18.30;;;4.10;;
5349;SDS011;2697;42.144;24.794;2023-03-14T14:48:35;6.40;;;2.87;;
5349;SDS011;2697;42.144;24.794;2023-03-14T14:51:03;7.53;;;4.00;;
5349;SDS011;2697;42.144;24.794;2023-03-14T14:56:16;6.40;;;3.50;;
5349;SDS011;2697;42.144;24.794;2023-03-14T14:58:50;16.53;;;4.10;;
5349;SDS011;2697;42.144;24.794;2023-03-14T15:01:24;6.10;;;3.67;;
5349;SDS011;2697;42.144;24.794;2023-03-14T15:03:55;9.90;;;4.87;;
5349;SDS011;2697;42.144;24.794;2023-03-14T15:06:20;4.70;;;3.53;;
5349;SDS011;2697;42.144;24.794;2023-03-14T15:08:49;3.60;;;2.70;;
5349;SDS011;2697;42.144;24.794;2023-03-14T15:11:16;15.83;;;3.83;;
5349;SDS011;2697;42.144;24.794;2023-03-14T15:13:43;6.70;;;3.30;;
5349;SDS011;2697;42.144;24.794;2023-03-14T15:16:09;6.40;;;3.57;;
5349;SDS011;2697;42.144;24.794;2023-03-14T15:18:36;4.47;;;3.00;;
5349;SDS011;2697;42.144;24.794;2023-03-14T15:21:02;17.90;;;3.80;;
5349;SDS011;2697;42.144;24.794;2023-03-14T15:23:27;9.93;;;3.77;;
5349;SDS011;2697;42.144;24.794;2023-03-14T15:25:52;5.57;;;3.57;;
5349;SDS011;2697;42.144;24.794;2023-03-14T15:28:19;10.63;;;3.60;;
5349;SDS011;2697;42.144;24.794;2023-03-14T15:30:54;5.87;;;3.33;;
5349;SDS011;2697;42.144;24.794;2023-03-14T15:33:21;8.07;;;2.43;;
5349;SDS011;2697;42.144;24.794;2023-03-14T15:35:47;4.70;;;2.60;;
5349;SDS011;2697;42.144;24.794;2023-03-14T15:38:20;8.03;;;3.17;;
5349;SDS011;2697;42.144;24.794;2023-03-14T15:40:47;3.87;;;2.57;;
5349;SDS011;2697;42.144;24.794;2023-03-14T15:43:14;5.70;;;3.10;;
5349;SDS011;2697;42.144;24.794;2023-03-14T15:45:39;8.53;;;2.83;;
5349;SDS011;2697;42.144;24.794;2023-03-14T15:48:06;5.73;;;2.93;;
5349;SDS011;2697;42.144;24.794;2023-03-14T15:50:37;8.40;;;2.50;;
5349;SDS011;2697;42.144;24.794;2023-03-14T15:53:02;8.30;;;2.60;;
5349;SDS011;2697;42.144;24.794;2023-03-14T15:55:28;7.17;;;2.67;;
5349;SDS011;2697;42.144;24.794;2023-03-14T15:57:53;6.90;;;3.13;;
5349;SDS011;2697;42.144;24.794;2023-03-14T16:00:19;8.83;;;3.70;;
5349;SDS011;2697;42.144;24.794;2023-03-14T16:02:46;4.40;;;2.63;;
5349;SDS011;2697;42.144;24.794;2023-03-14T16:05:12;9.77;;;3.27;;
5349;SDS011;2697;42.144;24.794;2023-03-14T16:07:39;6.80;;;2.60;;
5349;SDS011;2697;42.144;24.794;2023-03-14T16:10:05;5.30;;;3.10;;
5349;SDS011;2697;42.144;24.794;2023-03-14T16:12:32;10.77;;;2.77;;
5349;SDS011;2697;42.144;24.794;2023-03-14T16:14:58;10.23;;;3.70;;
5349;SDS011;2697;42.144;24.794;2023-03-14T16:17:24;10.90;;;3.57;;
5349;SDS011;2697;42.144;24.794;2023-03-14T16:19:49;7.67;;;4.10;;
5349;SDS011;2697;42.144;24.794;2023-03-14T16:22:14;19.07;;;6.03;;
5349;SDS011;2697;42.144;24.794;2023-03-14T16:24:40;11.87;;;5.20;;
5349;SDS011;2697;42.144;24.794;2023-03-14T16:27:05;15.53;;;4.23;;
5349;SDS011;2697;42.144;24.794;2023-03-14T16:29:30;7.87;;;2.97;;